Time;durP1;ratioP1;P1;durP2;ratioP2;P2;SDS_P1;SDS_P2;PMS_P1;PMS_P2;Temp;Humidity;BMP_temperature;BMP_pressure;BME280_temperature;BME280_humidity;BME280_pressure;Samples;Min_cycle;Max_cycle;Signal;HPM_P1;HPM_P2
2023/06/06 00:01:26;;;;;;;3.20;3.00;;;17.80;99.90;;;;;;6101607;23;20462;-75
2023/06/06 00:03:52;;;;;;;3.23;2.93;;;17.70;99.90;;;;;;6089573;23;20431;-75
2023/06/06 00:06:21;;;;;;;2.97;2.77;;;17.70;99.90;;;;;;6091417;23;20930;-76
2023/06/06 00:08:48;;;;;;;3.23;2.93;;;17.70;99.90;;;;;;6091876;23;20462;-76
2023/06/06 00:11:15;;;;;;;3.80;2.90;;;17.70;99.90;;;;;;6115592;23;20536;-75
2023/06/06 00:13:42;;;;;;;3.53;2.83;;;17.60;99.90;;;;;;6125998;23;20442;-74
2023/06/06 00:16:12;;;;;;;3.27;3.00;;;17.70;99.90;;;;;;6119490;23;20839;-75
2023/06/06 00:18:41;;;;;;;3.73;3.43;;;17.60;99.90;;;;;;6100785;23;20443;-75
2023/06/06 00:21:09;;;;;;;3.70;3.40;;;17.60;99.90;;;;;;6090701;23;21012;-75
2023/06/06 00:23:36;;;;;;;3.50;3.20;;;17.50;99.90;;;;;;6090975;23;20952;-75
2023/06/06 00:26:03;;;;;;;3.60;3.40;;;17.40;99.90;;;;;;6104464;23;20791;-75
2023/06/06 00:28:31;;;;;;;3.73;3.53;;;17.40;99.90;;;;;;6119626;23;20886;-75
2023/06/06 00:30:58;;;;;;;4.10;3.80;;;17.40;99.90;;;;;;6115856;23;20853;-75
2023/06/06 00:33:25;;;;;;;3.77;3.50;;;17.30;99.90;;;;;;6100277;23;20434;-75
2023/06/06 00:35:53;;;;;;;3.70;3.40;;;17.30;99.90;;;;;;6096496;23;20434;-75
2023/06/06 00:38:20;;;;;;;3.47;3.17;;;17.20;99.90;;;;;;6090884;23;20918;-76
2023/06/06 00:40:47;;;;;;;3.83;3.60;;;17.20;99.90;;;;;;6114811;23;20524;-76
2023/06/06 00:43:14;;;;;;;3.50;3.20;;;17.10;99.90;;;;;;6112027;23;20836;-76
2023/06/06 00:45:42;;;;;;;3.77;3.50;;;17.30;99.90;;;;;;6105068;23;20473;-76
2023/06/06 00:48:09;;;;;;;4.07;3.77;;;17.00;99.90;;;;;;6111714;23;20561;-76
2023/06/06 00:50:36;;;;;;;4.00;3.70;;;17.00;99.90;;;;;;6093027;23;20458;-76
2023/06/06 00:53:07;;;;;;;4.07;3.70;;;17.00;99.90;;;;;;6090773;23;20419;-76
2023/06/06 00:55:35;;;;;;;4.20;3.90;;;16.90;99.90;;;;;;6101416;23;20445;-76
2023/06/06 00:58:03;;;;;;;3.60;3.40;;;16.90;99.90;;;;;;6115649;23;20450;-76
2023/06/06 01:00:32;;;;;;;4.03;3.73;;;16.80;99.90;;;;;;6117312;23;20461;-76
2023/06/06 01:03:00;;;;;;;3.70;3.50;;;16.80;99.90;;;;;;6118900;23;20466;-76
2023/06/06 01:05:27;;;;;;;4.10;3.80;;;16.80;99.90;;;;;;6087842;23;20450;-76
2023/06/06 01:07:54;;;;;;;3.83;3.50;;;16.70;99.90;;;;;;6090527;23;20424;-77
2023/06/06 01:10:24;;;;;;;3.93;3.60;;;16.70;99.90;;;;;;6101275;23;20500;-75
2023/06/06 01:12:58;;;;;;;5.13;3.80;;;16.60;99.90;;;;;;6118949;23;20520;-75
2023/06/06 01:15:29;;;;;;;4.10;3.80;;;16.60;99.90;;;;;;6116517;23;20432;-75
2023/06/06 01:18:01;;;;;;;4.03;3.73;;;16.50;99.90;;;;;;6104926;23;20494;-75
2023/06/06 01:20:30;;;;;;;4.07;3.77;;;16.40;99.90;;;;;;6110766;23;20457;-75
2023/06/06 01:22:59;;;;;;;4.63;4.23;;;16.40;99.90;;;;;;6097632;23;20518;-75
2023/06/06 01:25:26;;;;;;;4.10;3.70;;;16.40;99.90;;;;;;6097000;23;20442;-75
2023/06/06 01:27:55;;;;;;;4.20;3.90;;;16.30;99.90;;;;;;6119444;23;20902;-75
2023/06/06 01:30:25;;;;;;;4.50;4.10;;;16.30;99.90;;;;;;6116862;23;20531;-76
2023/06/06 01:33:02;;;;;;;3.87;3.57;;;16.30;99.90;;;;;;6124710;23;20551;-75
2023/06/06 01:35:35;;;;;;;4.47;4.17;;;16.20;99.90;;;;;;6121173;23;20441;-76
2023/06/06 01:38:08;;;;;;;4.40;4.10;;;16.20;99.90;;;;;;6105362;23;20434;-76
2023/06/06 01:40:37;;;;;;;4.47;4.07;;;16.20;99.90;;;;;;6095302;23;20494;-76
2023/06/06 01:43:09;;;;;;;4.63;4.27;;;16.10;99.90;;;;;;6119927;23;20414;-76
2023/06/06 01:45:38;;;;;;;4.20;3.90;;;16.10;99.90;;;;;;6111836;23;20481;-76
2023/06/06 01:48:06;;;;;;;4.30;4.00;;;16.10;99.90;;;;;;6103983;23;20953;-76
2023/06/06 01:50:33;;;;;;;4.10;3.80;;;16.10;99.90;;;;;;6111592;23;20975;-77
2023/06/06 01:53:00;;;;;;;3.87;3.67;;;16.10;99.90;;;;;;6110935;23;20932;-79
2023/06/06 01:55:29;;;;;;;4.77;4.37;;;16.10;99.90;;;;;;6116639;23;20464;-76
2023/06/06 01:57:57;;;;;;;4.60;4.20;;;16.10;99.90;;;;;;6119965;23;20468;-76
2023/06/06 02:00:25;;;;;;;3.97;3.70;;;16.00;99.90;;;;;;6115381;23;20472;-76
2023/06/06 02:02:52;;;;;;;4.80;4.40;;;16.00;99.90;;;;;;6119247;23;20450;-76
2023/06/06 02:05:19;;;;;;;4.63;4.23;;;16.00;99.90;;;;;;6112398;23;20480;-76
2023/06/06 02:07:46;;;;;;;4.70;4.40;;;16.00;99.90;;;;;;6106838;23;21216;-77
2023/06/06 02:10:13;;;;;;;5.20;4.70;;;15.90;99.90;;;;;;6093565;23;20476;-76
2023/06/06 02:12:41;;;;;;;4.90;4.50;;;15.90;99.90;;;;;;6116099;23;20509;-77
2023/06/06 02:15:11;;;;;;;4.80;4.50;;;15.90;99.90;;;;;;6094138;23;20437;-77
2023/06/06 02:17:38;;;;;;;4.80;4.40;;;15.80;99.90;;;;;;6120554;23;20497;-76
2023/06/06 02:20:07;;;;;;;5.30;4.90;;;15.80;99.90;;;;;;6102755;23;20960;-76
2023/06/06 02:22:34;;;;;;;4.37;4.00;;;15.80;99.90;;;;;;6090417;23;20418;-76
2023/06/06 02:25:03;;;;;;;4.87;4.47;;;15.70;99.90;;;;;;6101711;23;20430;-76
2023/06/06 02:27:30;;;;;;;4.63;4.33;;;15.70;99.90;;;;;;6093343;23;20505;-76
2023/06/06 02:29:59;;;;;;;4.43;4.13;;;15.70;99.90;;;;;;6110779;23;20970;-76
2023/06/06 02:32:26;;;;;;;4.40;4.10;;;15.60;99.90;;;;;;6090733;23;20423;-76
2023/06/06 02:34:55;;;;;;;4.93;4.60;;;15.60;99.90;;;;;;6102550;23;20524;-76
2023/06/06 02:37:23;;;;;;;4.77;4.40;;;15.60;99.90;;;;;;6096757;23;20435;-76
2023/06/06 02:39:50;;;;;;;5.37;4.97;;;15.60;99.90;;;;;;6089144;23;20515;-76
2023/06/06 02:42:17;;;;;;;5.50;5.10;;;15.50;99.90;;;;;;6091369;23;20438;-76
2023/06/06 02:44:44;;;;;;;5.03;4.63;;;15.50;99.90;;;;;;6091152;23;20418;-76
2023/06/06 02:47:12;;;;;;;4.60;4.30;;;15.60;99.90;;;;;;6102251;23;20435;-76
2023/06/06 02:49:39;;;;;;;4.40;4.10;;;15.60;99.90;;;;;;6099799;23;20497;-76
2023/06/06 02:52:07;;;;;;;4.83;4.53;;;15.60;99.90;;;;;;6136443;23;20774;-76
2023/06/06 02:54:38;;;;;;;4.43;4.10;;;15.90;99.90;;;;;;6108757;23;20826;-76
2023/06/06 02:57:06;;;;;;;4.40;4.10;;;15.60;99.90;;;;;;6091139;23;20433;-76
2023/06/06 02:59:33;;;;;;;4.10;3.80;;;15.60;99.90;;;;;;6102633;23;20825;-76
2023/06/06 03:02:01;;;;;;;4.40;4.10;;;15.60;99.90;;;;;;6115685;23;20998;-76
2023/06/06 03:04:29;;;;;;;4.53;4.23;;;15.60;99.90;;;;;;6113521;23;20437;-76
2023/06/06 03:06:56;;;;;;;4.77;4.47;;;15.90;99.90;;;;;;6118776;23;20536;-75
2023/06/06 03:09:24;;;;;;;4.90;4.50;;;15.80;99.90;;;;;;6116625;23;20537;-76
2023/06/06 03:11:51;;;;;;;4.20;3.90;;;15.60;99.90;;;;;;6111440;23;20433;-76
2023/06/06 03:14:18;;;;;;;4.57;4.27;;;15.60;99.90;;;;;;6101554;23;20576;-76
2023/06/06 03:16:51;;;;;;;4.37;4.07;;;15.60;99.90;;;;;;6090056;23;20437;-76
2023/06/06 03:19:18;;;;;;;4.13;3.83;;;15.60;99.90;;;;;;6110354;23;20437;-75
2023/06/06 03:21:46;;;;;;;4.30;4.00;;;15.50;99.90;;;;;;6104091;23;20524;-76
2023/06/06 03:24:13;;;;;;;4.57;4.17;;;15.50;99.90;;;;;;6098966;23;20530;-76
2023/06/06 03:26:44;;;;;;;4.40;4.10;;;15.50;99.90;;;;;;6116359;23;20854;-76
2023/06/06 03:29:12;;;;;;;4.87;4.47;;;15.50;99.90;;;;;;6118114;23;21042;-77
2023/06/06 03:31:41;;;;;;;4.73;4.43;;;15.50;99.90;;;;;;6090916;23;20461;-76
2023/06/06 03:34:08;;;;;;;4.80;4.50;;;15.50;99.90;;;;;;6114650;23;20533;-77
2023/06/06 03:36:35;;;;;;;5.50;5.10;;;15.80;99.90;;;;;;6119935;23;20480;-77
2023/06/06 03:39:05;;;;;;;5.10;4.80;;;15.50;99.90;;;;;;6131876;23;20465;-77
2023/06/06 03:41:32;;;;;;;5.67;5.17;;;15.50;99.90;;;;;;6129915;23;20462;-76
2023/06/06 03:44:00;;;;;;;5.30;4.90;;;15.40;99.90;;;;;;6119431;23;20505;-76
2023/06/06 03:46:27;;;;;;;5.60;5.23;;;15.60;99.90;;;;;;6099981;23;20446;-76
2023/06/06 03:48:55;;;;;;;5.57;5.17;;;15.40;99.90;;;;;;6089199;23;20433;-76
2023/06/06 03:51:22;;;;;;;5.37;4.97;;;15.40;99.90;;;;;;6102538;23;20483;-76
2023/06/06 03:53:49;;;;;;;5.83;5.40;;;15.70;99.90;;;;;;6119538;23;20809;-76
2023/06/06 03:56:18;;;;;;;6.20;5.70;;;15.40;99.90;;;;;;6109941;23;20437;-77
2023/06/06 03:58:46;;;;;;;6.27;5.87;;;15.40;99.90;;;;;;6119234;23;20424;-77
2023/06/06 04:01:14;;;;;;;5.90;5.50;;;15.40;99.90;;;;;;6119586;23;20506;-76
2023/06/06 04:03:42;;;;;;;5.37;4.97;;;15.40;99.90;;;;;;6089414;23;20905;-76
2023/06/06 04:06:09;;;;;;;4.97;4.57;;;15.40;99.90;;;;;;6088390;23;20454;-76
2023/06/06 04:08:36;;;;;;;5.07;4.67;;;15.40;99.90;;;;;;6090193;23;20433;-76
2023/06/06 04:11:03;;;;;;;5.20;4.70;;;15.30;99.90;;;;;;6114856;23;20557;-76
2023/06/06 04:13:32;;;;;;;4.97;4.47;;;15.30;99.90;;;;;;6114130;23;20491;-77
2023/06/06 04:15:59;;;;;;;4.87;4.47;;;15.30;99.90;;;;;;6121107;23;20440;-77
2023/06/06 04:18:26;;;;;;;5.60;5.20;;;15.30;99.90;;;;;;6118091;23;20445;-76
2023/06/06 04:20:53;;;;;;;4.83;4.53;;;15.30;99.90;;;;;;6096199;23;20512;-76
2023/06/06 04:23:20;;;;;;;4.60;4.30;;;15.30;99.90;;;;;;6090366;23;20779;-76
2023/06/06 04:25:48;;;;;;;5.13;4.70;;;15.30;99.90;;;;;;6113117;23;20460;-78
2023/06/06 04:28:18;;;;;;;4.90;4.60;;;15.50;99.90;;;;;;6127778;23;20434;-76
2023/06/06 04:30:47;;;;;;;4.20;3.80;;;15.30;99.90;;;;;;6110713;23;20989;-77
2023/06/06 04:33:15;;;;;;;4.70;4.40;;;15.30;99.90;;;;;;6090186;23;20521;-77
2023/06/06 04:35:42;;;;;;;4.50;4.10;;;15.40;99.90;;;;;;6103044;23;20438;-77
2023/06/06 04:38:10;;;;;;;4.50;4.20;;;15.40;99.90;;;;;;6103047;23;20939;-77
2023/06/06 04:40:40;;;;;;;4.87;4.47;;;15.50;99.90;;;;;;6110503;23;20478;-81
2023/06/06 04:43:07;;;;;;;4.90;4.50;;;15.50;99.90;;;;;;6106717;23;20937;-80
2023/06/06 04:45:36;;;;;;;5.30;4.80;;;15.50;99.90;;;;;;6116486;23;20453;-82
2023/06/06 04:48:05;;;;;;;4.93;4.53;;;15.60;99.90;;;;;;6129734;23;20449;-80
2023/06/06 04:50:32;;;;;;;5.17;4.77;;;15.60;99.90;;;;;;6142890;23;20874;-81
2023/06/06 04:52:59;;;;;;;4.93;4.50;;;15.70;99.90;;;;;;6132803;23;20826;-77
2023/06/06 04:55:29;;;;;;;4.37;3.97;;;15.70;99.90;;;;;;6115189;23;21093;-81
2023/06/06 04:57:58;;;;;;;4.97;4.63;;;15.80;99.90;;;;;;6110959;23;21113;-82
2023/06/06 05:00:25;;;;;;;5.53;5.13;;;15.80;99.90;;;;;;6107260;23;20602;-81
2023/06/06 05:02:52;;;;;;;5.00;4.60;;;15.90;99.90;;;;;;6094196;23;20430;-81
2023/06/06 05:05:21;;;;;;;4.93;4.60;;;15.90;99.90;;;;;;6112770;23;20430;-80
2023/06/06 05:07:48;;;;;;;5.40;5.00;;;15.90;99.90;;;;;;6123651;23;20502;-81
2023/06/06 05:10:15;;;;;;;5.60;5.00;;;16.00;99.90;;;;;;6106831;23;20901;-81
2023/06/06 05:12:42;;;;;;;5.80;5.33;;;16.10;99.90;;;;;;6113563;23;20436;-81
2023/06/06 05:15:10;;;;;;;5.30;4.90;;;16.10;99.90;;;;;;6118907;23;21000;-83
2023/06/06 05:17:37;;;;;;;5.30;4.90;;;16.20;99.90;;;;;;6121237;23;20494;-81
2023/06/06 05:20:10;;;;;;;5.70;5.30;;;16.20;99.90;;;;;;6110389;23;21176;-82
2023/06/06 05:22:39;;;;;;;6.23;5.83;;;16.30;99.90;;;;;;6114278;23;20445;-81
2023/06/06 05:25:07;;;;;;;5.70;5.30;;;16.30;99.90;;;;;;6120170;23;20921;-81
2023/06/06 05:27:34;;;;;;;5.80;5.40;;;16.30;99.90;;;;;;6098291;23;20973;-80
2023/06/06 05:30:03;;;;;;;5.67;5.27;;;16.30;99.90;;;;;;6101202;23;21053;-84
2023/06/06 05:32:30;;;;;;;5.60;5.20;;;16.30;99.90;;;;;;6097778;23;20549;-74
2023/06/06 05:34:57;;;;;;;5.00;4.60;;;16.30;99.90;;;;;;6117676;23;20457;-74
2023/06/06 05:37:24;;;;;;;5.60;5.20;;;16.50;99.90;;;;;;6102208;23;20485;-74
2023/06/06 05:39:52;;;;;;;4.77;4.47;;;16.30;99.90;;;;;;6092688;23;20482;-74
2023/06/06 05:42:19;;;;;;;5.93;5.10;;;16.40;99.90;;;;;;6103518;23;20522;-74
2023/06/06 05:44:50;;;;;;;5.00;4.60;;;16.50;99.90;;;;;;6096344;23;21046;-75
2023/06/06 05:47:17;;;;;;;5.10;4.77;;;16.60;99.90;;;;;;6092198;23;20438;-73
2023/06/06 05:49:44;;;;;;;5.77;5.37;;;16.60;99.90;;;;;;6114914;23;20535;-74
2023/06/06 05:52:12;;;;;;;5.47;5.07;;;16.60;99.90;;;;;;6105116;23;20483;-75
2023/06/06 05:54:39;;;;;;;7.13;5.53;;;16.60;99.90;;;;;;6102540;23;20484;-75
2023/06/06 05:57:18;;;;;;;4.67;4.27;;;16.70;99.90;;;;;;6121391;23;20784;-72
2023/06/06 05:59:46;;;;;;;5.40;5.00;;;16.70;99.90;;;;;;6103416;23;20506;-73
2023/06/06 06:02:14;;;;;;;5.53;4.97;;;16.70;99.90;;;;;;6119104;23;20604;-73
2023/06/06 06:04:41;;;;;;;5.77;5.10;;;16.70;99.90;;;;;;6104232;23;22297;-72
2023/06/06 06:07:08;;;;;;;4.80;4.40;;;16.80;99.90;;;;;;6098679;23;20457;-72
2023/06/06 06:09:36;;;;;;;5.33;4.93;;;17.00;99.90;;;;;;6111190;23;20461;-73
2023/06/06 06:12:03;;;;;;;5.07;4.70;;;16.80;99.90;;;;;;6095462;23;20475;-72
2023/06/06 06:14:31;;;;;;;5.13;4.53;;;16.80;99.90;;;;;;6090108;23;20478;-73
2023/06/06 06:16:58;;;;;;;5.40;4.90;;;16.90;99.90;;;;;;6109709;23;21044;-73
2023/06/06 06:19:25;;;;;;;5.27;4.87;;;16.90;99.90;;;;;;6091142;23;20465;-73
2023/06/06 06:21:52;;;;;;;5.30;4.90;;;17.00;99.90;;;;;;6107525;23;20468;-72
2023/06/06 06:24:19;;;;;;;5.10;4.70;;;17.10;99.90;;;;;;6097227;23;20426;-72
2023/06/06 06:26:48;;;;;;;4.57;4.27;;;17.20;99.90;;;;;;6111358;23;20476;-69
2023/06/06 06:29:15;;;;;;;5.30;4.80;;;17.20;99.90;;;;;;6096618;23;20555;-68
2023/06/06 06:31:43;;;;;;;4.73;4.37;;;17.30;99.90;;;;;;6110952;23;20553;-68
2023/06/06 06:34:10;;;;;;;5.17;4.73;;;17.30;99.90;;;;;;6114908;23;20456;-68
2023/06/06 06:36:37;;;;;;;5.17;4.77;;;17.30;99.90;;;;;;6086520;23;20444;-68
2023/06/06 06:39:05;;;;;;;5.17;4.77;;;17.30;99.90;;;;;;6111487;23;20556;-68
2023/06/06 06:41:32;;;;;;;4.80;4.50;;;17.30;99.90;;;;;;6102631;23;20802;-69
2023/06/06 06:43:59;;;;;;;4.87;4.47;;;17.40;99.90;;;;;;6105432;23;20442;-69
2023/06/06 06:46:26;;;;;;;4.93;4.53;;;17.50;99.90;;;;;;6109401;23;20428;-68
2023/06/06 06:48:54;;;;;;;5.90;4.57;;;17.50;99.90;;;;;;6088904;23;20519;-68
2023/06/06 06:51:22;;;;;;;4.70;4.40;;;17.70;99.90;;;;;;6116632;23;20472;-68
2023/06/06 06:53:51;;;;;;;4.77;4.40;;;17.80;99.90;;;;;;6110567;23;20848;-68
2023/06/06 06:56:18;;;;;;;4.50;4.10;;;17.90;99.90;;;;;;6100803;23;20456;-69
2023/06/06 06:58:46;;;;;;;4.77;4.37;;;18.00;99.90;;;;;;6096059;23;20854;-69
2023/06/06 07:01:16;;;;;;;4.90;4.50;;;18.10;99.90;;;;;;6102966;23;20502;-71
2023/06/06 07:03:45;;;;;;;5.20;4.77;;;18.20;99.90;;;;;;6109041;23;20441;-70
2023/06/06 07:06:14;;;;;;;5.70;4.87;;;18.30;99.90;;;;;;6077809;23;20565;-70
2023/06/06 07:08:41;;;;;;;5.20;4.80;;;18.40;99.90;;;;;;6092837;23;20785;-70
2023/06/06 07:11:08;;;;;;;5.60;5.00;;;18.50;99.90;;;;;;6088605;23;20826;-71
2023/06/06 07:13:36;;;;;;;4.73;4.30;;;18.60;99.90;;;;;;6096416;23;20437;-70
2023/06/06 07:16:02;;;;;;;5.23;4.73;;;18.60;99.90;;;;;;6098474;23;20440;-70
2023/06/06 07:18:29;;;;;;;4.60;4.30;;;18.70;99.90;;;;;;6091356;23;20422;-71
2023/06/06 07:20:57;;;;;;;4.57;4.27;;;18.90;99.90;;;;;;6086784;23;20476;-71
2023/06/06 07:23:25;;;;;;;5.03;4.63;;;19.10;99.90;;;;;;6087052;23;20446;-71
2023/06/06 07:25:52;;;;;;;5.00;4.60;;;19.20;99.90;;;;;;6088943;23;20950;-70
2023/06/06 07:28:20;;;;;;;5.17;4.77;;;19.30;99.90;;;;;;6087421;23;20449;-70
2023/06/06 07:30:47;;;;;;;6.73;4.90;;;19.20;99.90;;;;;;6099504;23;20471;-70
2023/06/06 07:33:14;;;;;;;5.00;4.60;;;19.30;99.90;;;;;;6112031;23;20785;-71
2023/06/06 07:35:42;;;;;;;5.00;4.60;;;19.60;99.90;;;;;;6103451;23;20808;-71
2023/06/06 07:38:09;;;;;;;5.50;4.07;;;19.70;99.90;;;;;;6104885;23;21322;-71
2023/06/06 07:40:37;;;;;;;4.77;4.37;;;19.90;99.90;;;;;;6090248;23;20454;-71
2023/06/06 07:43:05;;;;;;;4.33;4.00;;;20.00;99.90;;;;;;6109745;23;20448;-71
2023/06/06 07:45:32;;;;;;;4.37;3.97;;;20.20;99.90;;;;;;6116696;23;20945;-71
2023/06/06 07:47:59;;;;;;;4.60;4.20;;;20.40;99.90;;;;;;6089854;23;20938;-71
2023/06/06 07:50:26;;;;;;;4.10;3.80;;;20.60;99.90;;;;;;6097393;23;20815;-71
2023/06/06 07:52:53;;;;;;;4.50;4.20;;;20.70;99.90;;;;;;6083663;23;20431;-69
2023/06/06 07:55:21;;;;;;;4.30;3.97;;;20.70;99.90;;;;;;6089864;23;20445;-69
2023/06/06 07:57:50;;;;;;;4.80;4.30;;;20.90;99.90;;;;;;6099355;23;20523;-70
2023/06/06 08:00:17;;;;;;;4.60;3.97;;;21.10;99.90;;;;;;6103387;23;20459;-70
2023/06/06 08:02:44;;;;;;;3.93;3.63;;;21.30;99.90;;;;;;6091532;23;20552;-69
2023/06/06 08:05:12;;;;;;;6.27;4.20;;;21.60;99.90;;;;;;6102424;23;20450;-69
2023/06/06 08:07:39;;;;;;;4.20;3.80;;;21.80;99.90;;;;;;6108559;23;20790;-69
2023/06/06 08:10:11;;;;;;;7.50;4.30;;;21.90;99.90;;;;;;6108907;23;20456;-69
2023/06/06 08:12:39;;;;;;;3.90;3.50;;;22.00;99.90;;;;;;6103789;23;20501;-70
2023/06/06 08:15:09;;;;;;;4.00;3.63;;;22.10;99.90;;;;;;6088177;23;20922;-70
2023/06/06 08:17:36;;;;;;;4.10;3.80;;;22.60;99.90;;;;;;6100460;23;20440;-70
2023/06/06 08:20:06;;;;;;;4.20;3.90;;;23.00;99.90;;;;;;6099116;23;20521;-69
2023/06/06 08:22:33;;;;;;;3.83;3.53;;;23.40;99.50;;;;;;6095723;23;20440;-70
2023/06/06 08:25:04;;;;;;;4.13;3.73;;;23.60;98.80;;;;;;6102359;23;20435;-69
2023/06/06 08:27:32;;;;;;;3.73;3.43;;;23.60;98.10;;;;;;6093813;23;20451;-69
2023/06/06 08:29:59;;;;;;;6.60;3.60;;;23.60;97.70;;;;;;6111893;23;20462;-70
2023/06/06 08:32:30;;;;;;;4.13;3.83;;;23.80;97.10;;;;;;6100520;23;20525;-69
2023/06/06 08:34:57;;;;;;;4.07;3.73;;;23.90;96.20;;;;;;6099097;23;20459;-69
2023/06/06 08:37:24;;;;;;;3.93;3.63;;;23.90;95.80;;;;;;6091131;23;20531;-69
2023/06/06 08:39:51;;;;;;;4.50;4.10;;;24.10;96.20;;;;;;6088382;23;20497;-69
2023/06/06 08:42:20;;;;;;;4.17;3.87;;;24.30;94.60;;;;;;6091286;23;20565;-69
2023/06/06 08:44:48;;;;;;;4.20;3.70;;;24.40;94.40;;;;;;6095856;23;20496;-69
2023/06/06 08:47:15;;;;;;;4.13;3.80;;;24.50;94.50;;;;;;6102290;23;20953;-70
2023/06/06 08:49:44;;;;;;;4.20;3.50;;;24.80;93.10;;;;;;6115832;23;20462;-69
2023/06/06 08:52:11;;;;;;;3.40;3.20;;;25.00;91.90;;;;;;6111060;23;20564;-69
2023/06/06 08:54:39;;;;;;;3.60;3.40;;;24.70;91.90;;;;;;6099972;23;20446;-70
2023/06/06 08:57:08;;;;;;;3.70;3.50;;;25.00;91.70;;;;;;6084252;23;20438;-69
2023/06/06 08:59:37;;;;;;;3.70;3.40;;;25.50;90.80;;;;;;6089178;23;20457;-70
2023/06/06 09:02:06;;;;;;;4.67;3.20;;;25.80;90.10;;;;;;6092480;23;20468;-70
2023/06/06 09:04:34;;;;;;;4.00;3.70;;;26.10;89.20;;;;;;6094019;23;20944;-70
2023/06/06 09:07:05;;;;;;;4.03;3.83;;;26.20;88.20;;;;;;6091576;23;20450;-69
2023/06/06 09:09:34;;;;;;;4.17;3.60;;;26.10;87.90;;;;;;6098459;23;20459;-71
2023/06/06 09:12:01;;;;;;;5.10;3.40;;;26.00;87.30;;;;;;6097846;23;20458;-70
2023/06/06 09:14:28;;;;;;;3.60;3.27;;;26.20;86.90;;;;;;6089870;23;20431;-69
2023/06/06 09:16:55;;;;;;;4.33;3.43;;;26.50;85.70;;;;;;6101301;23;20782;-69
2023/06/06 09:19:25;;;;;;;3.30;3.10;;;26.80;82.80;;;;;;6091602;23;20520;-69
2023/06/06 09:21:52;;;;;;;3.87;3.50;;;26.90;83.10;;;;;;6098276;23;20461;-69
2023/06/06 09:24:20;;;;;;;3.77;3.53;;;27.10;80.90;;;;;;6096193;23;20433;-70
2023/06/06 09:26:48;;;;;;;3.50;3.17;;;27.30;81.20;;;;;;6094062;23;20495;-70
2023/06/06 09:29:15;;;;;;;4.30;3.60;;;27.60;80.30;;;;;;6101801;23;20446;-84
2023/06/06 09:31:42;;;;;;;4.03;3.63;;;27.90;79.30;;;;;;6088682;23;20458;-70
2023/06/06 09:34:11;;;;;;;3.80;3.50;;;28.30;77.50;;;;;;6088443;23;20522;-70
2023/06/06 09:36:41;;;;;;;4.10;3.80;;;28.60;75.80;;;;;;6088747;23;20430;-70
2023/06/06 09:39:11;;;;;;;3.73;3.47;;;29.10;73.70;;;;;;6096992;23;20815;-70
2023/06/06 09:41:45;;;;;;;4.07;3.77;;;28.70;72.40;;;;;;6094968;23;20826;-70
2023/06/06 09:44:20;;;;;;;3.23;2.93;;;28.60;72.90;;;;;;6093386;23;20829;-70
2023/06/06 09:46:48;;;;;;;3.50;3.23;;;28.70;73.30;;;;;;6095592;23;20817;-70
2023/06/06 09:49:15;;;;;;;4.00;3.70;;;28.60;73.60;;;;;;6087165;23;20446;-69
2023/06/06 09:51:43;;;;;;;4.13;3.70;;;28.70;71.80;;;;;;6080595;23;20454;-72
2023/06/06 09:54:11;;;;;;;3.97;3.67;;;28.80;70.10;;;;;;6091314;23;20441;-70
2023/06/06 09:56:42;;;;;;;3.63;3.33;;;28.60;72.90;;;;;;6080424;23;21012;-75
2023/06/06 09:59:14;;;;;;;3.67;3.37;;;28.80;72.50;;;;;;6084858;23;20461;-75
2023/06/06 10:01:43;;;;;;;3.90;3.60;;;29.10;71.00;;;;;;6085217;23;20502;-75
2023/06/06 10:04:10;;;;;;;3.63;3.40;;;29.50;70.70;;;;;;6103937;23;20435;-75
2023/06/06 10:06:43;;;;;;;3.80;3.50;;;29.80;68.90;;;;;;6079174;23;23133;-75
2023/06/06 10:09:11;;;;;;;3.80;3.47;;;30.10;66.90;;;;;;6092188;23;21633;-75
2023/06/06 10:11:39;;;;;;;5.47;3.77;;;30.10;66.60;;;;;;6094685;23;20526;-75
2023/06/06 10:14:08;;;;;;;3.90;3.60;;;30.30;65.90;;;;;;6092391;23;20449;-75
2023/06/06 10:16:37;;;;;;;3.90;3.40;;;30.50;66.10;;;;;;6090961;23;20492;-75
2023/06/06 10:19:05;;;;;;;4.57;3.80;;;30.60;65.80;;;;;;6091311;23;20454;-75
2023/06/06 10:21:32;;;;;;;3.57;3.27;;;30.80;65.00;;;;;;6085492;23;20434;-74
2023/06/06 10:23:59;;;;;;;3.93;3.50;;;30.90;63.40;;;;;;6088968;23;20462;-74
2023/06/06 10:26:31;;;;;;;4.00;3.70;;;30.90;63.40;;;;;;6093958;23;20443;-74
2023/06/06 10:29:03;;;;;;;3.83;3.53;;;30.70;63.20;;;;;;6086417;23;20434;-74
2023/06/06 10:31:41;;;;;;;3.73;3.53;;;30.50;63.00;;;;;;6089067;23;20435;-74
2023/06/06 10:34:15;;;;;;;3.90;3.60;;;30.60;63.00;;;;;;6087636;23;20470;-75
2023/06/06 10:36:45;;;;;;;4.00;3.50;;;30.70;62.90;;;;;;6086029;23;20794;-74
2023/06/06 10:39:21;;;;;;;4.80;4.30;;;30.90;62.20;;;;;;6085871;23;20542;-75
2023/06/06 10:41:51;;;;;;;4.10;3.80;;;31.00;60.80;;;;;;6087979;23;21235;-74
2023/06/06 10:44:21;;;;;;;4.43;4.03;;;31.00;60.20;;;;;;6084618;23;20449;-74
2023/06/06 10:46:49;;;;;;;4.03;3.73;;;31.10;59.90;;;;;;6092147;23;20487;-75
2023/06/06 10:49:20;;;;;;;4.43;4.10;;;31.40;59.80;;;;;;6090628;23;20446;-75
2023/06/06 10:51:48;;;;;;;4.87;4.37;;;31.60;58.90;;;;;;6081956;23;20454;-74
2023/06/06 10:54:23;;;;;;;4.00;3.73;;;31.80;58.60;;;;;;6099095;23;20435;-75
2023/06/06 10:56:54;;;;;;;4.20;3.90;;;32.00;58.50;;;;;;6088650;23;20464;-74
2023/06/06 10:59:28;;;;;;;4.33;4.03;;;32.20;57.70;;;;;;6094567;23;20531;-75
2023/06/06 15:15:19;;;;;;;2.80;2.60;;;30.60;46.60;;;;;;6146460;22;20585;-75
2023/06/06 15:17:47;;;;;;;4.00;2.90;;;30.10;47.80;;;;;;6144711;23;20468;-76
2023/06/06 15:20:14;;;;;;;3.10;2.90;;;30.00;48.10;;;;;;6149286;23;20432;-76
2023/06/06 15:22:41;;;;;;;3.33;3.13;;;30.10;48.00;;;;;;6133089;23;20428;-76
2023/06/06 15:25:09;;;;;;;3.93;3.60;;;30.40;48.30;;;;;;6151444;23;20960;-76
2023/06/06 15:27:36;;;;;;;3.07;2.87;;;30.60;47.60;;;;;;6142770;23;20512;-76
2023/06/06 15:30:03;;;;;;;4.00;3.10;;;30.50;47.90;;;;;;6140744;23;21905;-76
2023/06/06 15:32:32;;;;;;;3.30;3.10;;;30.30;48.20;;;;;;6143510;23;20436;-76
2023/06/06 15:34:59;;;;;;;3.30;2.93;;;30.10;48.20;;;;;;6144440;23;20471;-78
2023/06/06 15:37:27;;;;;;;3.50;3.17;;;30.10;48.60;;;;;;6139840;23;20428;-77
2023/06/06 15:39:54;;;;;;;3.20;3.00;;;30.10;48.80;;;;;;6139342;23;20446;-76
2023/06/06 15:42:22;;;;;;;3.07;2.67;;;30.00;49.00;;;;;;6150169;23;20435;-76
2023/06/06 15:44:51;;;;;;;3.10;2.90;;;30.00;49.40;;;;;;6152092;23;20463;-77
2023/06/06 15:47:18;;;;;;;4.20;3.20;;;30.00;49.50;;;;;;6156313;23;20445;-76
2023/06/06 15:49:46;;;;;;;3.33;3.10;;;29.90;49.30;;;;;;6162925;23;20452;-76
2023/06/06 15:52:13;;;;;;;3.30;3.10;;;29.80;49.50;;;;;;6154662;23;20581;-76
2023/06/06 15:54:41;;;;;;;4.80;3.30;;;29.70;49.80;;;;;;6148186;23;20472;-76
2023/06/06 15:57:08;;;;;;;3.63;3.17;;;29.60;50.00;;;;;;6144527;23;20468;-76
2023/06/06 15:59:36;;;;;;;3.23;2.53;;;29.40;50.30;;;;;;6145162;23;20437;-77
2023/06/06 16:02:03;;;;;;;3.33;3.03;;;29.30;50.40;;;;;;6149080;23;20432;-77
2023/06/06 16:04:30;;;;;;;3.43;3.13;;;29.10;50.50;;;;;;6147564;23;20454;-77
2023/06/06 16:06:58;;;;;;;3.53;3.23;;;28.90;50.70;;;;;;6155612;23;20424;-76
2023/06/06 16:09:26;;;;;;;2.83;2.63;;;28.70;51.10;;;;;;6150375;23;20500;-76
2023/06/06 16:11:54;;;;;;;3.27;3.07;;;28.40;51.50;;;;;;6155049;23;20787;-77
2023/06/06 16:14:21;;;;;;;3.33;2.77;;;28.20;51.80;;;;;;6156544;23;20792;-76
2023/06/06 16:16:48;;;;;;;3.00;2.70;;;28.00;52.00;;;;;;6154465;23;21156;-77
2023/06/06 16:19:15;;;;;;;3.27;2.97;;;27.80;52.30;;;;;;6130176;23;20425;-77
2023/06/06 16:21:42;;;;;;;3.50;2.90;;;27.70;52.90;;;;;;6147695;23;20797;-76
2023/06/06 16:24:10;;;;;;;3.10;2.90;;;27.60;53.10;;;;;;6145326;23;20524;-75
2023/06/06 16:26:37;;;;;;;2.83;2.63;;;27.50;53.10;;;;;;6133259;23;20520;-76
2023/06/06 16:29:05;;;;;;;3.40;3.20;;;27.40;53.20;;;;;;6150235;23;20416;-78
2023/06/06 16:31:32;;;;;;;3.30;3.00;;;27.40;53.20;;;;;;6150162;23;20512;-76
2023/06/06 16:34:00;;;;;;;4.03;2.90;;;27.30;53.00;;;;;;6130970;23;20460;-77
2023/06/06 16:36:26;;;;;;;3.37;3.07;;;27.20;53.20;;;;;;6129421;23;20440;-76
2023/06/06 16:38:55;;;;;;;3.30;2.77;;;27.20;53.70;;;;;;6128425;23;20925;-76
2023/06/06 16:41:23;;;;;;;3.00;2.80;;;27.10;53.80;;;;;;6124500;23;20507;-76
2023/06/06 16:43:50;;;;;;;2.77;2.57;;;27.00;54.20;;;;;;6130503;23;20444;-76
2023/06/06 16:46:18;;;;;;;3.00;2.80;;;26.90;54.70;;;;;;6119332;23;20456;-77
2023/06/06 16:48:45;;;;;;;4.27;2.90;;;26.90;55.20;;;;;;6120029;23;20509;-77
2023/06/06 16:51:12;;;;;;;3.70;3.23;;;26.90;55.70;;;;;;6121554;23;20924;-79
2023/06/06 16:53:39;;;;;;;3.77;3.27;;;26.40;56.20;;;;;;6131025;23;20436;-77
2023/06/06 16:56:06;;;;;;;3.00;2.80;;;26.30;56.80;;;;;;6140527;23;20456;-78
2023/06/06 16:58:34;;;;;;;3.17;2.93;;;26.30;56.90;;;;;;6143148;23;20432;-79
2023/06/06 17:01:02;;;;;;;3.03;2.80;;;26.20;56.80;;;;;;6142055;23;20944;-77
2023/06/06 17:03:29;;;;;;;3.00;2.80;;;26.20;57.20;;;;;;6139385;23;20456;-75
2023/06/06 17:05:56;;;;;;;3.13;2.83;;;26.10;57.50;;;;;;6126979;23;20453;-74